Friday, April 27, 2018, 2:34 AM EDT
Back to Local

KLNS, Lancaster Airport

Location: Lititz, PA, United States Lat: 40.117
Local Time: 2:34 AM EDT ( 6:34 GMT) Lon: -76.3
Time Zone: US/Eastern Elev: 403 ft

Show me the last for .
Show Decoded

2018-04-26 16:53 METAR KLNS 262053Z 28006KT 10SM CLR 18/07 A2982 RMK AO2 SLP096 T01830067 58006 =
2018-04-26 15:53 METAR KLNS 261953Z 26008KT 10SM CLR 18/07 A2983 RMK AO2 SLP100 T01780072 =
2018-04-26 14:53 METAR KLNS 261853Z 28011G22KT 10SM CLR 17/06 A2983 RMK AO2 SLP102 T01670061 =
2018-04-26 13:53 METAR KLNS 261753Z 28012KT 10SM FEW041 17/07 A2983 RMK AO2 SLP102 T01670072
                 10167 20094 58001 =
2018-04-26 12:53 METAR KLNS 261653Z 29015G19KT 10SM CLR 15/06 A2983 RMK AO2 SLP102 T01500061 =
2018-04-26 11:53 METAR KLNS 261553Z 30016G20KT 10SM CLR 14/06 A2984 RMK AO2 SLP103 T01390056 =
2018-04-26 10:53 METAR KLNS 261453Z 30016KT 10SM CLR 13/06 A2984 RMK AO2 SLP103 T01330056 53014 =
2018-04-26 09:53 METAR KLNS 261353Z 31015KT 10SM CLR 12/05 A2982 RMK AO2 SLP097 T01220050 =
2018-04-26 08:53 METAR KLNS 261253Z 30016G23KT 10SM CLR 11/04 A2980 RMK AO2 SLP092 T01060044 =
2018-04-26 07:53 METAR KLNS 261153Z 29015KT 10SM FEW033 09/04 A2979 RMK AO2 SLP089 70006
                 T00940039 10128 20072 51015 =
2018-04-26 06:53 METAR KLNS 261053Z 29010KT 10SM CLR 08/03 A2978 RMK AO2 SLP084 T00830033 =
2018-04-26 05:53 METAR KLNS 260953Z 29012KT 10SM CLR 07/03 A2977 RMK AO2 SLP081 T00720033 =
2018-04-26 04:53 METAR KLNS 260853Z AUTO 30012KT 10SM CLR 08/04 A2975 RMK AO2 SLP073 T00830039
                 53017 =
2018-04-26 03:53 METAR KLNS 260753Z AUTO 27012KT 10SM CLR 08/04 A2973 RMK AO2 SLP068 T00830044 =
2018-04-26 02:53 METAR KLNS 260653Z AUTO 30015KT 10SM CLR 11/05 A2971 RMK AO2 SLP060 T01060050 =

Support USWX by starting your Amazon purchase here.